createdAt,value
2022-10-14T00:01:19.968Z,13.00
2022-10-14T00:03:48.139Z,13.00
2022-10-14T00:06:29.747Z,13.00
2022-10-14T00:08:59.727Z,12.80
2022-10-14T00:11:30.607Z,12.80
2022-10-14T00:14:01.285Z,12.90
2022-10-14T00:16:32.333Z,12.90
2022-10-14T00:19:01.282Z,13.00
2022-10-14T00:21:29.904Z,13.00
2022-10-14T00:23:57.992Z,12.90
2022-10-14T00:26:32.277Z,12.90
2022-10-14T00:29:00.743Z,12.80
2022-10-14T00:31:32.731Z,12.80
2022-10-14T00:34:00.489Z,12.70
2022-10-14T00:36:27.913Z,12.70
2022-10-14T00:38:55.645Z,12.90
2022-10-14T00:41:27.590Z,12.90
2022-10-14T00:44:03.023Z,13.00
2022-10-14T00:46:42.213Z,13.30
2022-10-14T00:49:17.844Z,13.30
2022-10-14T00:51:58.659Z,13.10
2022-10-14T00:54:30.547Z,13.00
2022-10-14T00:56:59.058Z,12.90
2022-10-14T00:59:26.798Z,12.90
2022-10-14T01:01:54.311Z,13.20
2022-10-14T01:04:22.185Z,13.10
2022-10-14T01:07:08.348Z,13.00
2022-10-14T01:09:50.644Z,13.00
2022-10-14T01:12:36.570Z,13.00
2022-10-14T01:15:39.344Z,12.90
2022-10-14T01:18:15.344Z,12.90
2022-10-14T01:21:01.375Z,12.80
2022-10-14T01:23:40.754Z,12.90
2022-10-14T01:26:26.617Z,12.90
2022-10-14T01:29:23.804Z,12.80
2022-10-14T01:32:04.312Z,12.60
2022-10-14T01:34:47.347Z,12.60
2022-10-14T01:37:21.794Z,12.60
2022-10-14T01:39:55.466Z,12.50
2022-10-14T01:42:31.107Z,12.40
2022-10-14T01:45:19.014Z,12.30
2022-10-14T01:47:50.304Z,12.20
2022-10-14T01:50:21.554Z,12.20
2022-10-14T01:53:03.970Z,12.20
2022-10-14T01:55:36.913Z,12.30
2022-10-14T01:58:06.682Z,12.30
2022-10-14T02:00:35.180Z,12.20
2022-10-14T02:03:02.890Z,12.10
2022-10-14T02:05:49.040Z,12.10
2022-10-14T02:08:45.064Z,12.70
2022-10-14T02:11:18.059Z,12.60
2022-10-14T02:13:55.948Z,12.50
2022-10-14T02:17:00.385Z,12.40
2022-10-14T02:20:03.572Z,12.20
2022-10-14T02:22:45.312Z,12.10
2022-10-14T02:25:20.091Z,12.10
2022-10-14T02:27:49.382Z,12.10
2022-10-14T02:30:17.943Z,12.10
2022-10-14T02:32:47.135Z,12.00
2022-10-14T02:35:18.191Z,12.00
2022-10-14T02:37:48.685Z,12.10
2022-10-14T02:40:41.678Z,12.10
2022-10-14T02:43:10.891Z,12.40
2022-10-14T02:45:43.060Z,12.40
2022-10-14T02:48:11.051Z,12.20
2022-10-14T02:50:39.248Z,12.10
2022-10-14T02:53:08.307Z,12.10
2022-10-14T02:55:35.739Z,12.40
2022-10-14T02:58:03.483Z,12.60
2022-10-14T03:00:30.891Z,12.90
2022-10-14T03:02:58.649Z,12.90
2022-10-14T03:05:28.542Z,12.90
2022-10-14T03:07:56.357Z,12.80
2022-10-14T03:10:25.597Z,12.50
2022-10-14T03:12:53.118Z,12.20
2022-10-14T03:15:27.926Z,12.10
2022-10-14T03:17:55.540Z,12.00
2022-10-14T03:20:31.394Z,11.90
2022-10-14T03:22:59.916Z,11.90
2022-10-14T03:25:29.237Z,11.90
2022-10-14T03:28:02.628Z,12.00
2022-10-14T03:30:43.546Z,11.90
2022-10-14T03:33:20.419Z,11.80
2022-10-14T03:36:10.649Z,11.80
2022-10-14T03:38:45.237Z,11.70
2022-10-14T03:41:21.961Z,11.70
2022-10-14T03:43:49.401Z,11.70
2022-10-14T03:46:17.577Z,11.70
2022-10-14T03:48:45.041Z,11.60
2022-10-14T03:51:13.459Z,11.70
2022-10-14T03:53:42.552Z,11.60
2022-10-14T03:56:11.102Z,11.50
2022-10-14T03:58:38.553Z,11.50
2022-10-14T04:01:11.767Z,11.50
2022-10-14T04:03:59.097Z,11.80
2022-10-14T04:06:28.621Z,12.10
2022-10-14T04:08:58.448Z,12.50
2022-10-14T04:11:31.476Z,12.80
2022-10-14T04:14:04.648Z,12.50
2022-10-14T04:16:35.996Z,12.30
2022-10-14T04:19:08.722Z,12.10
2022-10-14T04:21:36.239Z,12.00
2022-10-14T04:24:08.037Z,11.90
2022-10-14T04:26:46.394Z,12.00
2022-10-14T04:29:24.165Z,12.20
2022-10-14T04:31:56.972Z,11.90
2022-10-14T04:34:24.447Z,11.80
2022-10-14T04:36:54.128Z,11.70
2022-10-14T04:39:37.472Z,11.70
2022-10-14T04:42:06.035Z,12.00
2022-10-14T04:44:34.436Z,12.20
2022-10-14T04:47:03.103Z,12.20
2022-10-14T04:49:31.118Z,12.30
2022-10-14T04:52:06.856Z,12.20
2022-10-14T04:54:46.893Z,12.00
2022-10-14T04:57:14.487Z,11.70
2022-10-14T04:59:46.286Z,11.70
2022-10-14T05:02:20.533Z,11.70
2022-10-14T05:04:52.611Z,12.00
2022-10-14T05:07:20.116Z,11.90
2022-10-14T05:09:56.187Z,11.80
2022-10-14T05:12:36.103Z,11.70
2022-10-14T05:15:05.421Z,11.60
2022-10-14T05:17:53.030Z,11.50
2022-10-14T05:20:25.708Z,11.40
2022-10-14T05:22:56.128Z,11.30
2022-10-14T05:25:23.694Z,11.30
2022-10-14T05:27:53.670Z,11.10
2022-10-14T05:30:21.582Z,11.20
2022-10-14T05:32:52.717Z,11.20
2022-10-14T05:35:39.787Z,11.20
2022-10-14T05:38:09.089Z,11.20
2022-10-14T05:40:40.286Z,11.30
2022-10-14T05:43:07.744Z,11.20
2022-10-14T05:45:37.909Z,11.00
2022-10-14T05:48:05.742Z,11.10
2022-10-14T05:50:33.183Z,11.20
2022-10-14T05:53:05.625Z,11.40
2022-10-14T05:55:41.868Z,11.40
2022-10-14T05:58:09.796Z,11.50
2022-10-14T06:00:40.859Z,11.50
2022-10-14T06:03:13.296Z,11.60
2022-10-14T06:05:41.273Z,11.70
2022-10-14T06:08:09.194Z,11.80
2022-10-14T06:10:39.060Z,11.90
2022-10-14T06:13:06.634Z,12.00
2022-10-14T06:15:36.996Z,12.10
2022-10-14T06:18:04.713Z,12.20
2022-10-14T06:20:33.329Z,12.20
2022-10-14T06:23:00.810Z,12.40
2022-10-14T06:25:29.371Z,12.50
2022-10-14T06:28:02.510Z,12.60
2022-10-14T06:30:30.000Z,12.70
2022-10-14T06:32:57.480Z,13.10
2022-10-14T06:35:24.956Z,13.50
2022-10-14T06:37:52.370Z,13.70
2022-10-14T06:40:20.127Z,13.70
2022-10-14T06:42:47.669Z,13.80
2022-10-14T06:45:15.112Z,13.80
2022-10-14T06:47:42.737Z,13.90
2022-10-14T06:50:10.224Z,14.10
2022-10-14T06:52:37.968Z,14.20
2022-10-14T06:55:05.957Z,14.30
2022-10-14T06:57:33.597Z,14.50
2022-10-14T07:00:01.026Z,14.70
2022-10-14T07:02:28.408Z,14.90
2022-10-14T07:04:55.769Z,15.10
2022-10-14T07:07:23.237Z,15.40
2022-10-14T07:09:50.918Z,15.60
2022-10-14T07:12:18.291Z,15.80
2022-10-14T07:14:47.490Z,16.00
2022-10-14T07:17:14.862Z,16.00
2022-10-14T07:19:42.284Z,16.30
2022-10-14T07:22:09.816Z,16.50
2022-10-14T07:24:37.195Z,16.60
2022-10-14T07:27:04.675Z,16.80
2022-10-14T07:29:33.059Z,17.00
2022-10-14T07:32:00.488Z,17.10
2022-10-14T07:34:27.930Z,17.20
2022-10-14T07:36:55.363Z,17.20
2022-10-14T07:39:22.789Z,17.20
2022-10-14T07:41:50.185Z,17.30
2022-10-14T07:44:17.719Z,17.30
2022-10-14T07:46:45.903Z,17.40
2022-10-14T07:49:18.707Z,17.40
2022-10-14T07:51:46.888Z,17.50
2022-10-14T07:54:22.356Z,17.70
2022-10-14T07:56:50.582Z,17.70
2022-10-14T07:59:19.792Z,17.80
2022-10-14T08:01:52.133Z,17.90
2022-10-14T08:04:19.957Z,18.10
2022-10-14T08:06:48.594Z,18.20
2022-10-14T08:09:16.866Z,18.40
2022-10-14T08:11:45.096Z,18.50
2022-10-14T08:14:13.007Z,18.70
2022-10-14T08:16:40.754Z,18.60
2022-10-14T08:19:14.294Z,18.60
2022-10-14T08:21:43.179Z,18.70
2022-10-14T08:24:11.489Z,18.60
2022-10-14T08:26:48.166Z,18.60
2022-10-14T08:29:15.719Z,18.70
2022-10-14T08:31:43.102Z,18.80
2022-10-14T08:34:11.202Z,18.90
2022-10-14T08:36:38.674Z,19.00
2022-10-14T08:39:07.072Z,19.00
2022-10-14T08:41:56.002Z,19.10
2022-10-14T08:44:54.661Z,19.20
2022-10-14T08:47:26.857Z,19.00
2022-10-14T08:50:02.429Z,19.00
2022-10-14T08:52:44.674Z,19.20
2022-10-14T08:55:15.075Z,19.40
2022-10-14T08:57:51.788Z,19.30
2022-10-14T09:00:20.443Z,19.40
2022-10-14T09:02:52.373Z,19.30
2022-10-14T09:05:23.392Z,19.40
2022-10-14T09:07:53.708Z,19.50
2022-10-14T09:10:40.209Z,19.50
2022-10-14T09:13:18.812Z,19.70
2022-10-14T09:15:50.327Z,19.70
2022-10-14T09:18:32.707Z,19.80
2022-10-14T09:21:01.744Z,19.60
2022-10-14T09:23:29.231Z,19.50
2022-10-14T09:26:03.929Z,19.60
2022-10-14T09:28:38.996Z,19.80
2022-10-14T09:31:11.577Z,20.00
2022-10-14T09:33:42.287Z,20.00
2022-10-14T09:36:18.757Z,19.90
2022-10-14T09:38:52.590Z,20.00
2022-10-14T09:41:31.109Z,20.00
2022-10-14T09:44:22.497Z,20.20
2022-10-14T09:47:09.325Z,20.00
2022-10-14T09:49:42.688Z,20.30
2022-10-14T09:52:24.916Z,20.10
2022-10-14T09:55:01.471Z,20.10
2022-10-14T09:57:29.168Z,20.20
2022-10-14T10:00:00.787Z,20.20
2022-10-14T10:02:42.653Z,19.90
2022-10-14T10:05:22.539Z,19.90
2022-10-14T10:08:11.191Z,20.20
2022-10-14T10:10:38.808Z,20.40
2022-10-14T10:13:31.997Z,20.30
2022-10-14T10:16:01.399Z,20.40
2022-10-14T10:18:28.977Z,20.70
2022-10-14T10:21:17.791Z,20.80
2022-10-14T10:24:03.862Z,20.60
2022-10-14T10:26:34.007Z,20.70
2022-10-14T10:29:04.751Z,20.80
2022-10-14T10:34:31.468Z,20.80
2022-10-14T10:37:49.370Z,20.90
2022-10-14T10:40:17.197Z,21.20
2022-10-14T10:43:02.744Z,21.20
2022-10-14T10:46:03.281Z,21.30
2022-10-14T10:48:47.534Z,21.30
2022-10-14T10:51:39.660Z,21.40
2022-10-14T10:54:17.296Z,21.60
2022-10-14T10:56:56.218Z,21.50
2022-10-14T10:59:48.492Z,21.70
2022-10-14T11:02:22.138Z,21.80
2022-10-14T11:05:07.907Z,21.90
2022-10-14T11:08:17.212Z,22.00
2022-10-14T11:11:15.179Z,21.80
2022-10-14T11:14:12.853Z,21.70
2022-10-14T11:16:44.329Z,21.60
2022-10-14T11:19:17.949Z,21.70
2022-10-14T11:22:05.337Z,21.80
2022-10-14T11:24:46.903Z,21.90
2022-10-14T11:27:23.887Z,21.50
2022-10-14T11:30:15.487Z,21.50
2022-10-14T11:33:03.977Z,21.50
2022-10-14T11:35:51.030Z,21.60
2022-10-14T11:39:03.414Z,21.70
2022-10-14T11:42:01.474Z,21.70
2022-10-14T11:44:39.080Z,21.80
2022-10-14T11:47:32.632Z,21.90
2022-10-14T11:49:59.993Z,21.70
2022-10-14T11:52:37.645Z,21.60
2022-10-14T11:55:14.654Z,21.60
2022-10-14T11:57:50.051Z,21.80
2022-10-14T12:00:23.046Z,21.80
2022-10-14T12:03:32.080Z,21.70
2022-10-14T12:06:17.722Z,21.70
2022-10-14T12:08:55.333Z,22.00
2022-10-14T12:11:40.281Z,22.30
2022-10-14T12:16:40.910Z,22.50
2022-10-14T12:19:10.866Z,22.30
2022-10-14T12:22:08.867Z,22.40
2022-10-14T12:24:45.404Z,22.30
2022-10-14T12:27:15.402Z,22.50
2022-10-14T12:29:50.047Z,22.40
2022-10-14T12:32:19.682Z,22.60
2022-10-14T12:34:58.802Z,22.80
2022-10-14T12:37:34.931Z,22.70
2022-10-14T12:40:02.987Z,22.70
2022-10-14T12:42:32.557Z,22.40
2022-10-14T12:45:19.494Z,22.40
2022-10-14T12:47:47.300Z,22.40
2022-10-14T12:50:29.402Z,22.30
2022-10-14T12:53:02.679Z,22.40
2022-10-14T12:55:57.775Z,22.50
2022-10-14T12:59:03.627Z,22.70
2022-10-14T13:01:35.290Z,22.90
2022-10-14T13:04:17.491Z,23.00
2022-10-14T13:07:28.397Z,22.90
2022-10-14T13:10:27.638Z,23.10
2022-10-14T13:12:55.170Z,23.20
2022-10-14T13:15:49.995Z,23.40
2022-10-14T13:18:42.815Z,23.20
2022-10-14T13:21:20.440Z,23.20
2022-10-14T13:23:51.076Z,22.90
2022-10-14T13:26:35.008Z,23.00
2022-10-14T13:29:08.890Z,22.90
2022-10-14T13:31:46.435Z,22.90
2022-10-14T13:34:29.587Z,22.80
2022-10-14T13:37:02.757Z,22.70
2022-10-14T13:39:33.355Z,22.60
2022-10-14T13:42:02.008Z,22.60
2022-10-14T13:44:29.797Z,22.50
2022-10-14T13:47:01.433Z,22.50
2022-10-14T13:49:36.045Z,22.60
2022-10-14T13:52:07.897Z,22.70
2022-10-14T13:54:35.604Z,22.60
2022-10-14T14:02:51.485Z,22.90
2022-10-14T14:05:26.609Z,22.90
2022-10-14T14:11:14.547Z,22.60
2022-10-14T14:14:08.951Z,22.20
2022-10-14T14:16:40.863Z,22.30
2022-10-14T14:19:26.929Z,22.30
2022-10-14T14:22:13.972Z,22.10
2022-10-14T14:24:41.470Z,22.00
2022-10-14T14:27:24.245Z,22.00
2022-10-14T14:29:53.705Z,21.90
2022-10-14T14:32:28.679Z,21.90
2022-10-14T14:34:56.850Z,21.90
2022-10-14T14:37:53.386Z,22.00
2022-10-14T14:40:27.677Z,22.00
2022-10-14T14:43:02.048Z,22.00
2022-10-14T14:45:51.181Z,22.10
2022-10-14T14:48:19.120Z,22.00
2022-10-14T14:50:48.866Z,21.80
2022-10-14T14:53:20.565Z,21.80
2022-10-14T14:55:54.021Z,21.70
2022-10-14T14:58:38.557Z,21.60
2022-10-14T15:01:27.771Z,21.60
2022-10-14T15:04:12.548Z,21.60
2022-10-14T15:06:51.822Z,21.60
2022-10-14T15:09:30.267Z,21.50
2022-10-14T15:12:00.222Z,21.60
2022-10-14T15:14:48.241Z,21.60
2022-10-14T15:17:46.769Z,21.60
2022-10-14T15:20:30.590Z,21.40
2022-10-14T15:22:58.127Z,21.40
2022-10-14T15:25:33.046Z,21.40
2022-10-14T15:28:02.166Z,21.40
2022-10-14T15:30:34.960Z,21.40
2022-10-14T15:33:13.728Z,21.30
2022-10-14T15:35:41.823Z,21.20
2022-10-14T15:38:16.102Z,21.10
2022-10-14T15:40:45.645Z,21.00
2022-10-14T15:43:17.612Z,21.00
2022-10-14T15:46:11.688Z,21.00
2022-10-14T15:48:48.904Z,20.90
2022-10-14T15:51:19.777Z,21.00
2022-10-14T15:53:49.101Z,20.90
2022-10-14T15:56:17.281Z,20.90
2022-10-14T15:58:44.738Z,20.80
2022-10-14T16:01:17.681Z,20.70
2022-10-14T16:03:45.151Z,20.60
2022-10-14T16:06:15.621Z,20.50
2022-10-14T16:08:43.266Z,20.30
2022-10-14T16:11:22.285Z,20.20
2022-10-14T16:13:49.829Z,20.10
2022-10-14T16:16:32.909Z,20.00
2022-10-14T16:19:03.285Z,19.90
2022-10-14T16:21:31.304Z,19.70
2022-10-14T16:23:59.234Z,19.60
2022-10-14T16:26:26.986Z,19.40
2022-10-14T16:28:54.565Z,19.30
2022-10-14T16:31:22.021Z,19.00
2022-10-14T16:33:56.854Z,19.30
2022-10-14T16:36:26.215Z,19.50
2022-10-14T16:38:55.684Z,19.60
2022-10-14T16:41:25.056Z,19.80
2022-10-14T16:43:52.415Z,19.80
2022-10-14T16:46:19.801Z,19.70
2022-10-14T16:48:48.423Z,19.80
2022-10-14T16:51:15.930Z,19.80
2022-10-14T16:53:48.772Z,19.80
2022-10-14T16:56:39.546Z,19.80
2022-10-14T16:59:08.212Z,19.80
2022-10-14T17:01:35.805Z,19.70
2022-10-14T17:04:04.306Z,19.70
2022-10-14T17:06:32.205Z,19.80
2022-10-14T17:08:59.632Z,19.90
2022-10-14T17:11:29.761Z,19.90
2022-10-14T17:14:00.327Z,19.90
2022-10-14T17:16:28.733Z,19.90
2022-10-14T17:18:58.272Z,19.80
2022-10-14T17:21:29.398Z,19.80
2022-10-14T17:24:03.563Z,19.80
2022-10-14T17:26:33.112Z,19.60
2022-10-14T17:29:00.837Z,19.50
2022-10-14T17:31:29.087Z,19.40
2022-10-14T17:33:56.626Z,19.40
2022-10-14T17:36:30.724Z,19.40
2022-10-14T17:38:59.400Z,19.50
2022-10-14T17:41:29.535Z,19.60
2022-10-14T17:43:58.766Z,19.60
2022-10-14T17:46:27.143Z,19.60
2022-10-14T17:48:56.773Z,19.60
2022-10-14T17:51:25.539Z,19.70
2022-10-14T17:53:58.723Z,19.70
2022-10-14T17:56:27.726Z,19.60
2022-10-14T17:58:57.083Z,19.60
2022-10-14T18:01:37.196Z,19.50
2022-10-14T18:04:11.601Z,19.50
2022-10-14T18:06:39.403Z,19.20
2022-10-14T18:09:09.071Z,19.00
2022-10-14T18:12:07.697Z,18.90
2022-10-14T18:14:30.807Z,19.10
2022-10-14T18:16:59.428Z,19.30
2022-10-14T18:19:27.195Z,19.40
2022-10-14T18:21:54.665Z,19.50
2022-10-14T18:24:22.674Z,19.30
2022-10-14T18:26:51.076Z,19.30
2022-10-14T18:29:18.478Z,19.30
2022-10-14T18:31:45.973Z,19.30
2022-10-14T18:34:14.051Z,19.30
2022-10-14T18:36:41.508Z,19.30
2022-10-14T18:39:11.646Z,19.30
2022-10-14T18:41:39.651Z,19.20
2022-10-14T18:44:07.541Z,19.20
2022-10-14T18:46:36.952Z,19.00
2022-10-14T18:49:06.634Z,19.00
2022-10-14T18:51:37.589Z,19.00
2022-10-14T18:54:14.384Z,19.00
2022-10-14T18:56:42.344Z,18.90
2022-10-14T18:59:13.191Z,19.00
2022-10-14T19:01:41.126Z,19.00
2022-10-14T19:04:13.029Z,18.90
2022-10-14T19:06:41.623Z,19.00
2022-10-14T19:09:12.580Z,18.90
2022-10-14T19:11:41.130Z,18.80
2022-10-14T19:14:09.987Z,18.80
2022-10-14T19:16:38.855Z,18.80
2022-10-14T19:19:15.239Z,18.80
2022-10-14T19:21:48.179Z,18.60
2022-10-14T19:24:16.019Z,18.50
2022-10-14T19:26:45.039Z,18.50
2022-10-14T19:29:14.568Z,18.50
2022-10-14T19:31:43.734Z,18.50
2022-10-14T19:34:14.561Z,18.40
2022-10-14T19:36:43.464Z,18.30
2022-10-14T19:39:14.650Z,18.10
2022-10-14T19:41:46.565Z,17.90
2022-10-14T19:44:15.931Z,17.80
2022-10-14T19:46:44.982Z,17.50
2022-10-14T19:49:14.223Z,17.10
2022-10-14T19:51:41.892Z,16.90
2022-10-14T19:54:11.889Z,16.60
2022-10-14T19:56:39.657Z,16.40
2022-10-14T19:59:07.176Z,16.20
2022-10-14T20:01:34.961Z,16.40
2022-10-14T20:04:02.983Z,16.60
2022-10-14T20:06:33.786Z,16.90
2022-10-14T20:09:01.661Z,17.00
2022-10-14T20:11:29.489Z,16.90
2022-10-14T20:13:57.260Z,16.80
2022-10-14T20:16:25.200Z,16.50
2022-10-14T20:18:52.591Z,16.30
2022-10-14T20:21:20.028Z,16.80
2022-10-14T20:23:47.557Z,16.80
2022-10-14T20:26:20.941Z,16.90
2022-10-14T20:28:49.942Z,16.90
2022-10-14T20:31:20.351Z,17.00
2022-10-14T20:33:48.863Z,17.10
2022-10-14T20:36:21.601Z,17.00
2022-10-14T20:38:50.189Z,16.90
2022-10-14T20:41:26.067Z,16.40
2022-10-14T20:43:55.096Z,16.00
2022-10-14T20:46:24.117Z,15.80
2022-10-14T20:48:55.779Z,15.60
2022-10-14T20:51:23.385Z,15.60
2022-10-14T20:53:58.480Z,15.40
2022-10-14T20:56:31.479Z,15.30
2022-10-14T20:59:00.887Z,15.60
2022-10-14T21:01:29.859Z,15.50
2022-10-14T21:04:01.586Z,15.40
2022-10-14T21:06:29.325Z,15.40
2022-10-14T21:08:58.571Z,15.80
2022-10-14T21:11:27.890Z,16.10
2022-10-14T21:13:58.358Z,16.30
2022-10-14T21:16:34.537Z,16.50
2022-10-14T21:19:05.006Z,16.60
2022-10-14T21:21:45.352Z,16.70
2022-10-14T21:24:16.906Z,16.30
2022-10-14T21:26:50.127Z,16.30
2022-10-14T21:29:21.606Z,16.40
2022-10-14T21:31:49.758Z,16.50
2022-10-14T21:34:17.242Z,16.30
2022-10-14T21:36:44.948Z,16.30
2022-10-14T21:39:17.893Z,16.30
2022-10-14T21:41:45.981Z,16.30
2022-10-14T21:44:16.552Z,16.30
2022-10-14T21:46:44.426Z,16.30
2022-10-14T21:49:12.659Z,16.30
2022-10-14T21:51:40.480Z,16.30
2022-10-14T21:54:10.832Z,16.20
2022-10-14T21:56:39.293Z,16.30
2022-10-14T21:59:07.313Z,16.30
2022-10-14T22:01:34.836Z,16.30
2022-10-14T22:04:04.768Z,16.40
2022-10-14T22:06:34.629Z,16.40
2022-10-14T22:09:04.441Z,16.40
2022-10-14T22:11:34.878Z,16.40
2022-10-14T22:14:04.291Z,16.40
2022-10-14T22:16:32.084Z,16.50
2022-10-14T22:19:01.566Z,16.50
2022-10-14T22:21:31.794Z,16.50
2022-10-14T22:23:59.778Z,16.40
2022-10-14T22:26:29.230Z,16.50
2022-10-14T22:29:10.551Z,16.50
2022-10-14T22:31:38.248Z,16.40
2022-10-14T22:34:07.444Z,16.40
2022-10-14T22:36:35.503Z,16.40
2022-10-14T22:39:06.656Z,16.40
2022-10-14T22:41:35.909Z,16.50
2022-10-14T22:44:05.388Z,16.50
2022-10-14T22:46:35.442Z,16.50
2022-10-14T22:49:03.529Z,16.50
2022-10-14T22:51:36.595Z,16.50
2022-10-14T22:54:04.352Z,16.50
2022-10-14T22:56:32.708Z,16.50
2022-10-14T22:59:11.591Z,16.50
2022-10-14T23:01:41.464Z,16.50
2022-10-14T23:04:10.631Z,16.50
2022-10-14T23:06:39.308Z,16.50
2022-10-14T23:09:06.829Z,16.50
2022-10-14T23:11:34.284Z,16.40
2022-10-14T23:14:04.638Z,16.30
2022-10-14T23:16:35.497Z,16.30
2022-10-14T23:19:03.239Z,16.30
2022-10-14T23:21:35.376Z,16.20
2022-10-14T23:24:06.455Z,16.20
2022-10-14T23:26:35.191Z,16.20
2022-10-14T23:29:06.236Z,16.10
2022-10-14T23:31:35.994Z,16.10
2022-10-14T23:34:10.319Z,15.90
2022-10-14T23:36:37.833Z,15.80
2022-10-14T23:39:05.456Z,15.70
2022-10-14T23:41:33.117Z,15.50
2022-10-14T23:44:00.669Z,15.30
2022-10-14T23:46:28.076Z,15.20
2022-10-14T23:49:06.712Z,15.00
2022-10-14T23:51:35.122Z,15.00
2022-10-14T23:54:02.839Z,14.90
2022-10-14T23:56:30.321Z,15.40
2022-10-14T23:58:57.757Z,15.40
